»·PEaware :: BOE561 KJAC-KPDX

BOE561 :: KJAC-KPDX

FLIGHT INFORMATION

Flight Status: Arrived
Operator:
Boeing Commercial Airplane Group
More flights by this operator :: More flights under this callsign
Pilot: Ben F. (2808)
Aircraft: BOEING 737-200
(B732)
More flights by this aircraft type
Origin: KJAC Jackson Hole
United States
Destination: KPDX Portland Intl
United States
More flights between these airports :: More routes between these airports
Route: +ALPIN2 IDA DNJ J82 BTG
File this flight plan on PilotEdge
Remarks:
Altitude:
(Current/Filed)
34,000ft
Speed:
(Current/Filed)
441kts
Departed: 22-Sep-18 08:10 AM
Arrived: 22-Sep-18 09:46 AM
Distance/Time
Traveled:
519nm/1:36
Distance/Time
To Go:
Arrived

Flight Plot

Page will automatically refresh every two minutes.

Flight plan parsing failed; only flown route is shown


Map Options




Map Legend


Flown Route
Filed Route
Departure Airport
Arrival Airport
Navaid (VOR, NDB)
Fix

Horizontal Profiles

Position Reports

Time Latitude Longitude Heading Altitude Ground
Speed
22-Sep-18 07:59 43.602259 -110.737708 107 6460ft 0kts
22-Sep-18 08:00 43.602259 -110.737708 107 6460ft 0kts
22-Sep-18 08:01 43.602259 -110.737708 107 6460ft 0kts
22-Sep-18 08:02 43.602259 -110.737708 107 6460ft 0kts
22-Sep-18 08:03 43.602274 -110.737772 107 6460ft 2kts
22-Sep-18 08:04 43.602307 -110.738502 55 6460ft 2kts
22-Sep-18 08:05 43.602083 -110.738717 18 6460ft 0kts
22-Sep-18 08:06 43.602083 -110.738717 18 6460ft 0kts
22-Sep-18 08:07 43.603278 -110.738122 19 6460ft 16kts
22-Sep-18 08:08 43.608247 -110.735712 19 6460ft 20kts
22-Sep-18 08:09 43.613252 -110.733315 21 6460ft 17kts
22-Sep-18 08:10 43.615033 -110.732773 310 6460ft 7kts
22-Sep-18 08:11 43.614252 -110.734395 199 6460ft 34kts
22-Sep-18 08:12 43.581936 -110.750011 211 7524ft 152kts
22-Sep-18 08:13 43.543747 -110.781637 207 9041ft 193kts
22-Sep-18 08:14 43.487264 -110.817687 207 10505ft 251kts
22-Sep-18 08:15 43.418207 -110.861914 207 12127ft 299kts
22-Sep-18 08:16 43.339654 -110.912065 207 14214ft 319kts
22-Sep-18 08:17 43.259487 -110.966259 223 16253ft 324kts
22-Sep-18 08:18 43.249112 -111.081550 283 18063ft 334kts
22-Sep-18 08:19 43.279616 -111.203643 287 19610ft 345kts
22-Sep-18 08:20 43.314055 -111.328117 287 20964ft 353kts
22-Sep-18 08:21 43.349317 -111.454325 287 22219ft 358kts
22-Sep-18 08:22 43.384951 -111.582284 287 23394ft 361kts
22-Sep-18 08:23 43.420280 -111.709799 287 24368ft 366kts
22-Sep-18 08:24 43.456505 -111.841204 287 25272ft 371kts
22-Sep-18 08:25 43.492955 -111.974135 287 26075ft 375kts
22-Sep-18 08:26 43.531900 -112.108346 290 26789ft 380kts
22-Sep-18 08:27 43.575083 -112.241787 290 27422ft 384kts
22-Sep-18 08:28 43.618547 -112.376616 290 28112ft 387kts
22-Sep-18 08:29 43.662345 -112.513146 290 28724ft 391kts
22-Sep-18 08:30 43.705859 -112.649476 290 29528ft 387kts
22-Sep-18 08:31 43.748222 -112.782899 289 30215ft 386kts
22-Sep-18 08:32 43.791083 -112.918578 289 30636ft 391kts
22-Sep-18 08:33 43.834709 -113.057361 289 31142ft 391kts
22-Sep-18 08:34 43.877739 -113.195073 289 31659ft 391kts
22-Sep-18 08:35 43.920271 -113.331828 289 32299ft 386kts
22-Sep-18 08:36 43.962351 -113.467899 289 32847ft 382kts
22-Sep-18 08:37 44.003878 -113.602876 289 33308ft 381kts
22-Sep-18 08:38 44.043896 -113.733619 288 33734ft 379kts
22-Sep-18 08:39 44.084982 -113.868531 288 34136ft 379kts
22-Sep-18 08:40 44.124474 -113.998931 288 34131ft 387kts
22-Sep-18 08:41 44.166349 -114.137875 288 34128ft 394kts
22-Sep-18 08:42 44.208746 -114.279314 288 34126ft 400kts
22-Sep-18 08:43 44.251545 -114.422894 288 34124ft 404kts
22-Sep-18 08:44 44.294328 -114.567207 288 34120ft 401kts
22-Sep-18 08:45 44.335436 -114.706697 288 34130ft 399kts
22-Sep-18 08:46 44.377362 -114.849747 288 34129ft 398kts
22-Sep-18 08:47 44.418575 -114.991163 288 34128ft 399kts
22-Sep-18 08:48 44.458843 -115.130063 287 34127ft 401kts
22-Sep-18 08:49 44.499960 -115.272799 287 34126ft 402kts
22-Sep-18 08:50 44.540633 -115.414784 287 34124ft 404kts
22-Sep-18 08:51 44.582137 -115.560397 287 34112ft 405kts
22-Sep-18 08:52 44.623482 -115.703339 287 34106ft 406kts
22-Sep-18 08:53 44.665591 -115.848789 287 34104ft 408kts
22-Sep-18 08:54 44.708083 -115.996398 287 34101ft 408kts
22-Sep-18 08:55 44.749893 -116.143817 286 34100ft 406kts
22-Sep-18 08:56 44.778548 -116.268440 280 34099ft 401kts
22-Sep-18 08:57 44.810978 -116.444401 280 34098ft 399kts
22-Sep-18 08:58 44.838258 -116.594614 280 34096ft 397kts
22-Sep-18 08:59 44.863954 -116.737466 279 34106ft 399kts
22-Sep-18 09:00 44.885290 -116.857066 279 34105ft 401kts
22-Sep-18 09:01 44.912336 -117.009801 279 34092ft 404kts
22-Sep-18 09:02 44.943849 -117.189497 279 34075ft 406kts
22-Sep-18 09:03 44.966343 -117.318858 279 34075ft 407kts
22-Sep-18 09:04 44.997543 -117.499794 279 34073ft 407kts
22-Sep-18 09:05 45.019562 -117.628643 278 34069ft 405kts
22-Sep-18 09:06 45.044918 -117.778254 277 34081ft 400kts
22-Sep-18 09:07 45.070426 -117.930050 277 34079ft 396kts
22-Sep-18 09:08 45.095434 -118.080186 277 34078ft 393kts
22-Sep-18 09:09 45.118913 -118.222344 276 34067ft 388kts
22-Sep-18 09:10 45.142691 -118.367612 276 34064ft 384kts
22-Sep-18 09:11 45.166304 -118.513032 276 34063ft 381kts
22-Sep-18 09:12 45.188375 -118.650106 275 34055ft 378kts
22-Sep-18 09:13 45.211077 -118.792410 275 34048ft 378kts
22-Sep-18 09:14 45.234016 -118.937346 275 34027ft 378kts
22-Sep-18 09:15 45.256759 -119.082484 276 33195ft 385kts
22-Sep-18 09:16 45.279390 -119.227832 276 31202ft 372kts
22-Sep-18 09:17 45.301050 -119.368359 276 29162ft 358kts
22-Sep-18 09:18 45.321645 -119.503197 276 27139ft 347kts
22-Sep-18 09:19 45.341814 -119.636432 276 25189ft 345kts
22-Sep-18 09:20 45.361008 -119.764164 276 23453ft 342kts
22-Sep-18 09:21 45.380537 -119.895254 276 21729ft 339kts
22-Sep-18 09:22 45.399729 -120.025110 276 20068ft 335kts
22-Sep-18 09:23 45.418658 -120.154363 276 18495ft 333kts
22-Sep-18 09:24 45.437149 -120.281568 276 17170ft 327kts
22-Sep-18 09:25 45.455325 -120.407725 277 15960ft 322kts
22-Sep-18 09:26 45.473139 -120.532289 277 15953ft 325kts
22-Sep-18 09:27 45.490581 -120.655316 276 15953ft 327kts
22-Sep-18 09:28 45.508059 -120.779656 276 15958ft 330kts
22-Sep-18 09:29 45.525850 -120.907265 276 15957ft 332kts
22-Sep-18 09:30 45.544021 -121.036468 277 15174ft 336kts
22-Sep-18 09:31 45.562062 -121.162017 277 13366ft 315kts
22-Sep-18 09:32 45.578883 -121.280589 277 11959ft 300kts
22-Sep-18 09:33 45.579886 -121.395037 264 11952ft 286kts
22-Sep-18 09:34 45.575031 -121.504719 264 11538ft 271kts
22-Sep-18 09:35 45.569937 -121.610961 264 9937ft 269kts
22-Sep-18 09:36 45.565607 -121.702704 263 8591ft 267kts
22-Sep-18 09:37 45.560757 -121.806928 263 7128ft 264kts
22-Sep-18 09:38 45.556168 -121.905528 263 7008ft 244kts
22-Sep-18 09:39 45.551898 -122.000140 263 6482ft 239kts
22-Sep-18 09:40 45.547719 -122.091267 263 5994ft 217kts
22-Sep-18 09:41 45.543963 -122.176189 264 5610ft 219kts
22-Sep-18 09:42 45.539930 -122.262161 264 4104ft 220kts
22-Sep-18 09:43 45.535649 -122.346187 264 3008ft 197kts
22-Sep-18 09:44 45.531895 -122.420296 264 2223ft 185kts
22-Sep-18 09:45 45.549094 -122.480796 300 1324ft 160kts
22-Sep-18 09:46 45.568469 -122.527355 295 705ft 132kts
22-Sep-18 09:47 45.585483 -122.571666 295 51ft 127kts
22-Sep-18 09:48 45.591994 -122.591144 197 38ft 6kts
22-Sep-18 09:49 45.591804 -122.592294 201 38ft 11kts
22-Sep-18 09:50 45.589265 -122.587022 119 38ft 20kts
22-Sep-18 09:51 45.586573 -122.580158 119 38ft 0kts
22-Sep-18 09:52 45.586258 -122.580553 300 38ft 8kts
22-Sep-18 09:53 45.586369 -122.580819 299 38ft 0kts

Navigation Log

Ident Type
Flight plan parsing failed, navigation log unavailable